createdAt,value
2024-03-12T00:00:29.686Z,7.6
2024-03-12T00:01:32.840Z,7.6
2024-03-12T00:02:26.115Z,7.6
2024-03-12T00:03:26.573Z,7.6
2024-03-12T00:04:26.112Z,7.6
2024-03-12T00:05:26.114Z,7.6
2024-03-12T00:06:26.134Z,7.6
2024-03-12T00:07:26.158Z,7.6
2024-03-12T00:08:26.123Z,7.6
2024-03-12T00:09:26.152Z,7.6
2024-03-12T00:10:26.130Z,7.6
2024-03-12T00:11:26.276Z,7.5
2024-03-12T00:12:26.160Z,7.5
2024-03-12T00:13:26.104Z,7.5
2024-03-12T00:14:26.104Z,7.5
2024-03-12T00:15:26.138Z,7.5
2024-03-12T00:16:26.101Z,7.6
2024-03-12T00:17:26.157Z,7.5
2024-03-12T00:18:26.150Z,7.6
2024-03-12T00:19:26.113Z,7.5
2024-03-12T00:20:26.584Z,7.5
2024-03-12T00:21:29.721Z,7.5
2024-03-12T00:22:32.751Z,7.5
2024-03-12T00:23:26.119Z,7.5
2024-03-12T00:24:26.177Z,7.6
2024-03-12T00:25:26.118Z,7.5
2024-03-12T00:26:26.123Z,7.6
2024-03-12T00:27:26.129Z,7.6
2024-03-12T00:28:26.160Z,7.6
2024-03-12T00:29:26.110Z,7.6
2024-03-12T00:30:26.159Z,7.6
2024-03-12T00:31:26.100Z,7.6
2024-03-12T00:32:26.131Z,7.6
2024-03-12T00:33:26.198Z,7.6
2024-03-12T00:34:26.100Z,7.6
2024-03-12T00:35:26.147Z,7.6
2024-03-12T00:36:26.138Z,7.6
2024-03-12T00:37:26.106Z,7.6
2024-03-12T00:38:26.110Z,7.6
2024-03-12T00:39:26.146Z,7.7
2024-03-12T00:40:26.123Z,7.7
2024-03-12T00:41:26.112Z,7.7
2024-03-12T00:42:26.180Z,7.7
2024-03-12T00:43:27.100Z,7.7
2024-03-12T00:44:30.287Z,7.7
2024-03-12T00:45:33.135Z,7.7
2024-03-12T00:46:26.112Z,7.7
2024-03-12T00:47:26.122Z,7.7
2024-03-12T00:48:26.133Z,7.7
2024-03-12T00:49:26.108Z,7.7
2024-03-12T00:50:26.115Z,7.7
2024-03-12T00:51:26.129Z,7.7
2024-03-12T00:52:26.097Z,7.7
2024-03-12T00:53:26.116Z,7.7
2024-03-12T00:54:26.146Z,7.7
2024-03-12T00:55:26.122Z,7.7
2024-03-12T00:56:26.105Z,7.7
2024-03-12T00:57:26.472Z,7.7
2024-03-12T00:58:26.124Z,7.7
2024-03-12T00:59:26.128Z,7.7
2024-03-12T01:00:26.239Z,7.7
2024-03-12T01:01:26.219Z,7.7
2024-03-12T01:02:26.139Z,7.7
2024-03-12T01:03:26.153Z,7.7
2024-03-12T01:04:27.200Z,7.7
2024-03-12T01:05:30.769Z,7.7
2024-03-12T01:06:33.199Z,7.7
2024-03-12T01:08:26.174Z,7.7
2024-03-12T01:09:26.134Z,7.7
2024-03-12T01:10:26.138Z,7.7
2024-03-12T01:11:26.144Z,7.7
2024-03-12T01:12:26.147Z,7.7
2024-03-12T01:14:26.140Z,7.7
2024-03-12T01:16:26.124Z,7.7
2024-03-12T01:17:26.170Z,7.7
2024-03-12T01:18:26.539Z,7.7
2024-03-12T01:19:26.125Z,7.8
2024-03-12T01:20:26.440Z,7.8
2024-03-12T01:21:26.125Z,7.8
2024-03-12T01:22:26.180Z,7.8
2024-03-12T01:23:26.095Z,7.8
2024-03-12T01:24:26.113Z,7.8
2024-03-12T01:25:27.225Z,7.8
2024-03-12T01:26:30.385Z,7.8
2024-03-12T01:27:33.264Z,7.8
2024-03-12T01:29:26.110Z,7.8
2024-03-12T01:30:26.123Z,7.8
2024-03-12T01:31:26.115Z,7.8
2024-03-12T01:33:26.163Z,7.8
2024-03-12T01:34:26.120Z,7.8
2024-03-12T01:35:26.321Z,7.8
2024-03-12T01:37:26.109Z,7.8
2024-03-12T01:38:26.139Z,7.8
2024-03-12T01:40:26.102Z,7.8
2024-03-12T01:41:26.099Z,7.8
2024-03-12T01:42:26.169Z,7.8
2024-03-12T01:43:26.116Z,7.8
2024-03-12T01:44:26.121Z,7.8
2024-03-12T01:45:26.217Z,7.8
2024-03-12T01:46:27.263Z,7.8
2024-03-12T01:47:30.507Z,7.8
2024-03-12T01:48:33.243Z,7.8
2024-03-12T01:50:26.373Z,7.8
2024-03-12T01:51:26.157Z,7.8
2024-03-12T01:52:26.116Z,7.8
2024-03-12T01:53:26.179Z,7.8
2024-03-12T01:54:26.123Z,7.8
2024-03-12T01:55:26.109Z,7.8
2024-03-12T01:56:26.110Z,7.8
2024-03-12T01:57:26.135Z,7.8
2024-03-12T01:58:26.090Z,7.8
2024-03-12T01:59:26.102Z,7.8
2024-03-12T02:00:26.123Z,7.8
2024-03-12T02:01:26.180Z,7.8
2024-03-12T02:02:26.103Z,7.8
2024-03-12T02:04:26.096Z,7.8
2024-03-12T02:05:26.100Z,7.8
2024-03-12T02:06:26.101Z,7.8
2024-03-12T02:07:27.442Z,7.8
2024-03-12T02:08:30.522Z,7.8
2024-03-12T02:09:33.346Z,7.8
2024-03-12T02:10:26.259Z,7.8
2024-03-12T02:11:26.127Z,7.8
2024-03-12T02:12:26.119Z,7.8
2024-03-12T02:13:26.122Z,7.8
2024-03-12T02:15:26.155Z,7.8
2024-03-12T02:16:26.094Z,7.8
2024-03-12T02:17:26.094Z,7.8
2024-03-12T02:18:26.130Z,7.8
2024-03-12T02:20:26.094Z,7.8
2024-03-12T02:21:26.207Z,7.8
2024-03-12T02:22:26.112Z,7.8
2024-03-12T02:23:26.128Z,7.8
2024-03-12T02:24:26.159Z,7.8
2024-03-12T02:25:26.117Z,7.8
2024-03-12T02:26:26.136Z,7.7
2024-03-12T02:28:27.482Z,7.7
2024-03-12T02:29:30.533Z,7.7
2024-03-12T02:31:26.114Z,7.7
2024-03-12T02:32:26.142Z,7.7
2024-03-12T02:33:26.153Z,7.7
2024-03-12T02:35:26.212Z,7.7
2024-03-12T02:37:26.138Z,7.7
2024-03-12T02:38:26.099Z,7.7
2024-03-12T02:39:26.187Z,7.7
2024-03-12T02:40:26.111Z,7.7
2024-03-12T02:41:26.126Z,7.7
2024-03-12T02:42:26.125Z,7.7
2024-03-12T02:43:26.136Z,7.7
2024-03-12T02:44:26.120Z,7.7
2024-03-12T02:46:26.095Z,7.7
2024-03-12T02:47:26.096Z,7.7
2024-03-12T02:48:26.121Z,7.7
2024-03-12T02:49:27.625Z,7.7
2024-03-12T02:50:30.614Z,7.7
2024-03-12T02:52:26.092Z,7.6
2024-03-12T02:53:26.096Z,7.6
2024-03-12T02:54:26.125Z,7.6
2024-03-12T02:55:26.120Z,7.6
2024-03-12T02:56:26.317Z,7.6
2024-03-12T02:57:26.136Z,7.6
2024-03-12T02:58:26.119Z,7.6
2024-03-12T02:59:26.131Z,7.6
2024-03-12T03:00:26.148Z,7.6
2024-03-12T03:01:26.151Z,7.6
2024-03-12T03:02:26.108Z,7.6
2024-03-12T03:03:26.102Z,7.6
2024-03-12T03:04:26.098Z,7.5
2024-03-12T03:05:26.116Z,7.5
2024-03-12T03:06:26.113Z,7.5
2024-03-12T03:07:26.343Z,7.5
2024-03-12T03:08:26.100Z,7.5
2024-03-12T03:09:26.132Z,7.5
2024-03-12T03:10:27.626Z,7.5
2024-03-12T03:11:30.821Z,7.5
2024-03-12T03:12:26.124Z,7.5
2024-03-12T03:13:26.103Z,7.4
2024-03-12T03:14:26.126Z,7.4
2024-03-12T03:15:26.206Z,7.4
2024-03-12T03:16:26.115Z,7.4
2024-03-12T03:17:26.417Z,7.4
2024-03-12T03:18:26.129Z,7.4
2024-03-12T03:19:26.118Z,7.4
2024-03-12T03:20:26.100Z,7.4
2024-03-12T03:21:26.161Z,7.4
2024-03-12T03:22:26.092Z,7.4
2024-03-12T03:23:26.092Z,7.4
2024-03-12T03:24:26.122Z,7.4
2024-03-12T03:25:26.099Z,7.4
2024-03-12T03:26:26.112Z,7.4
2024-03-12T03:27:26.115Z,7.4
2024-03-12T03:28:26.102Z,7.4
2024-03-12T03:29:26.108Z,7.4
2024-03-12T03:30:26.148Z,7.4
2024-03-12T03:31:27.683Z,7.4
2024-03-12T03:32:30.874Z,7.4
2024-03-12T03:34:26.119Z,7.4
2024-03-12T03:35:26.129Z,7.4
2024-03-12T03:36:26.133Z,7.4
2024-03-12T03:37:26.109Z,7.4
2024-03-12T03:38:26.461Z,7.4
2024-03-12T03:39:26.098Z,7.3
2024-03-12T03:40:26.146Z,7.3
2024-03-12T03:41:26.096Z,7.4
2024-03-12T03:42:26.134Z,7.4
2024-03-12T03:43:26.092Z,7.4
2024-03-12T03:44:26.101Z,7.4
2024-03-12T03:45:26.151Z,7.4
2024-03-12T03:46:26.139Z,7.4
2024-03-12T03:47:26.125Z,7.4
2024-03-12T03:48:26.121Z,7.4
2024-03-12T03:49:26.144Z,7.4
2024-03-12T03:50:26.114Z,7.4
2024-03-12T03:51:26.155Z,7.4
2024-03-12T03:52:26.116Z,7.4
2024-03-12T03:53:26.112Z,7.5
2024-03-12T03:54:28.659Z,7.5
2024-03-12T03:55:31.270Z,7.5
2024-03-12T03:56:26.092Z,7.5
2024-03-12T03:57:26.096Z,7.5
2024-03-12T03:58:26.104Z,7.5
2024-03-12T03:59:26.118Z,7.5
2024-03-12T04:00:26.136Z,7.5
2024-03-12T04:01:26.151Z,7.5
2024-03-12T04:02:26.136Z,7.6
2024-03-12T04:03:26.162Z,7.6
2024-03-12T04:04:26.115Z,7.6
2024-03-12T04:05:26.109Z,7.6
2024-03-12T04:06:26.146Z,7.6
2024-03-12T04:07:26.119Z,7.6
2024-03-12T04:08:26.127Z,7.6
2024-03-12T04:09:26.160Z,7.6
2024-03-12T04:10:26.156Z,7.6
2024-03-12T04:11:26.507Z,7.6
2024-03-12T04:12:26.175Z,7.6
2024-03-12T04:13:26.095Z,7.6
2024-03-12T04:14:26.098Z,7.6
2024-03-12T04:15:28.662Z,7.6
2024-03-12T04:16:31.352Z,7.6
2024-03-12T04:18:26.152Z,7.6
2024-03-12T04:19:26.113Z,7.6
2024-03-12T04:20:26.131Z,7.6
2024-03-12T04:22:26.126Z,7.6
2024-03-12T04:23:26.187Z,7.6
2024-03-12T04:24:26.139Z,7.6
2024-03-12T04:25:26.124Z,7.6
2024-03-12T04:26:26.125Z,7.6
2024-03-12T04:27:26.121Z,7.6
2024-03-12T04:28:26.113Z,7.6
2024-03-12T04:29:26.090Z,7.6
2024-03-12T04:30:26.143Z,7.6
2024-03-12T04:31:26.095Z,7.6
2024-03-12T04:32:26.441Z,7.6
2024-03-12T04:33:26.208Z,7.6
2024-03-12T04:34:26.103Z,7.6
2024-03-12T04:35:26.106Z,7.6
2024-03-12T04:36:28.653Z,7.6
2024-03-12T04:37:31.454Z,7.5
2024-03-12T04:38:26.118Z,7.5
2024-03-12T04:39:26.139Z,7.5
2024-03-12T04:40:26.149Z,7.5
2024-03-12T04:41:26.156Z,7.5
2024-03-12T04:42:26.153Z,7.5
2024-03-12T04:43:26.132Z,7.5
2024-03-12T04:44:26.174Z,7.5
2024-03-12T04:45:26.341Z,7.5
2024-03-12T04:47:26.150Z,7.5
2024-03-12T04:48:26.285Z,7.5
2024-03-12T04:49:26.095Z,7.5
2024-03-12T04:50:26.092Z,7.5
2024-03-12T04:51:26.154Z,7.5
2024-03-12T04:53:26.114Z,7.5
2024-03-12T04:54:26.172Z,7.5
2024-03-12T04:56:26.112Z,7.5
2024-03-12T04:57:28.774Z,7.5
2024-03-12T04:58:31.565Z,7.5
2024-03-12T04:59:26.132Z,7.5
2024-03-12T05:00:26.198Z,7.5
2024-03-12T05:01:26.276Z,7.5
2024-03-12T05:02:26.130Z,7.5
2024-03-12T05:03:26.253Z,7.5
2024-03-12T05:04:26.120Z,7.5
2024-03-12T05:05:26.220Z,7.5
2024-03-12T05:06:26.136Z,7.5
2024-03-12T05:07:26.176Z,7.5
2024-03-12T05:08:26.293Z,7.5
2024-03-12T05:09:26.136Z,7.5
2024-03-12T05:10:26.209Z,7.5
2024-03-12T05:11:26.405Z,7.5
2024-03-12T05:12:26.223Z,7.5
2024-03-12T05:13:26.188Z,7.5
2024-03-12T05:14:26.225Z,7.4
2024-03-12T05:15:26.271Z,7.4
2024-03-12T05:16:26.369Z,7.4
2024-03-12T05:17:26.190Z,7.4
2024-03-12T05:18:28.835Z,7.4
2024-03-12T05:19:31.812Z,7.4
2024-03-12T05:20:26.103Z,7.4
2024-03-12T05:21:27.493Z,7.4
2024-03-12T05:22:26.336Z,7.4
2024-03-12T05:23:26.132Z,7.4
2024-03-12T05:24:26.233Z,7.4
2024-03-12T05:25:26.299Z,7.4
2024-03-12T05:26:26.278Z,7.4
2024-03-12T05:27:26.252Z,7.4
2024-03-12T05:28:26.259Z,7.3
2024-03-12T05:30:26.184Z,7.3
2024-03-12T05:31:26.259Z,7.3
2024-03-12T05:32:26.128Z,7.3
2024-03-12T05:33:26.348Z,7.3
2024-03-12T05:34:26.203Z,7.3
2024-03-12T05:35:26.125Z,7.3
2024-03-12T05:36:26.362Z,7.3
2024-03-12T05:38:26.220Z,7.2
2024-03-12T05:39:28.907Z,7.2
2024-03-12T05:40:31.971Z,7.2
2024-03-12T05:41:26.220Z,7.2
2024-03-12T05:42:26.341Z,7.2
2024-03-12T05:43:26.305Z,7.2
2024-03-12T05:44:26.195Z,7.2
2024-03-12T05:45:26.356Z,7.2
2024-03-12T05:46:26.491Z,7.2
2024-03-12T05:47:26.473Z,7.2
2024-03-12T05:48:26.295Z,7.2
2024-03-12T05:49:26.557Z,7.2
2024-03-12T05:50:26.267Z,7.2
2024-03-12T05:51:26.143Z,7.2
2024-03-12T05:52:26.318Z,7.2
2024-03-12T05:53:26.350Z,7.2
2024-03-12T05:55:26.328Z,7.2
2024-03-12T05:56:26.259Z,7.2
2024-03-12T05:57:26.276Z,7.2
2024-03-12T05:58:26.379Z,7.2
2024-03-12T05:59:26.405Z,7.2
2024-03-12T06:00:29.045Z,7.2
2024-03-12T06:01:32.382Z,7.2
2024-03-12T06:02:26.364Z,7.2
2024-03-12T06:03:26.500Z,7.2
2024-03-12T06:04:26.132Z,7.2
2024-03-12T06:05:26.425Z,7.2
2024-03-12T06:06:26.457Z,7.2
2024-03-12T06:07:26.534Z,7.2
2024-03-12T06:08:26.319Z,7.2
2024-03-12T06:09:26.158Z,7.2
2024-03-12T06:10:26.636Z,7.2
2024-03-12T06:11:26.342Z,7.2
2024-03-12T06:12:26.432Z,7.2
2024-03-12T06:13:26.476Z,7.2
2024-03-12T06:15:26.157Z,7.2
2024-03-12T06:16:26.446Z,7.2
2024-03-12T06:17:26.515Z,7.2
2024-03-12T06:18:26.164Z,7.2
2024-03-12T06:19:26.156Z,7.2
2024-03-12T06:20:26.442Z,7.3
2024-03-12T06:21:29.182Z,7.3
2024-03-12T06:22:32.133Z,7.2
2024-03-12T06:23:26.148Z,7.2
2024-03-12T06:24:26.530Z,7.3
2024-03-12T06:25:26.518Z,7.3
2024-03-12T06:26:26.120Z,7.2
2024-03-12T06:27:26.141Z,7.3
2024-03-12T06:28:26.140Z,7.3
2024-03-12T06:29:26.128Z,7.3
2024-03-12T06:30:26.147Z,7.3
2024-03-12T06:31:26.239Z,7.3
2024-03-12T06:32:26.148Z,7.3
2024-03-12T06:33:26.193Z,7.3
2024-03-12T06:34:26.162Z,7.3
2024-03-12T06:35:26.131Z,7.2
2024-03-12T06:36:26.135Z,7.2
2024-03-12T06:37:26.158Z,7.3
2024-03-12T06:38:26.168Z,7.2
2024-03-12T06:40:26.148Z,7.2
2024-03-12T06:41:26.466Z,7.2
2024-03-12T06:42:29.250Z,7.2
2024-03-12T06:43:32.126Z,7.2
2024-03-12T06:44:26.138Z,7.2
2024-03-12T06:45:26.222Z,7.2
2024-03-12T06:46:26.314Z,7.2
2024-03-12T06:47:26.165Z,7.2
2024-03-12T06:48:26.242Z,7.2
2024-03-12T06:49:26.107Z,7.2
2024-03-12T06:50:26.131Z,7.2
2024-03-12T06:51:26.128Z,7.2
2024-03-12T06:52:26.100Z,7.2
2024-03-12T06:53:26.111Z,7.2
2024-03-12T06:54:26.168Z,7.2
2024-03-12T06:55:26.150Z,7.2
2024-03-12T06:56:26.121Z,7.3
2024-03-12T06:57:26.241Z,7.2
2024-03-12T06:58:26.126Z,7.3
2024-03-12T06:59:26.141Z,7.3
2024-03-12T07:00:26.207Z,7.2
2024-03-12T07:01:26.170Z,7.2
2024-03-12T07:02:26.116Z,7.2
2024-03-12T07:03:27.712Z,7.2
2024-03-12T07:04:30.591Z,7.2
2024-03-12T07:05:26.106Z,7.2
2024-03-12T07:06:26.118Z,7.2
2024-03-12T07:07:26.116Z,7.2
2024-03-12T07:08:26.102Z,7.2
2024-03-12T07:09:26.148Z,7.2
2024-03-12T07:10:26.574Z,7.2
2024-03-12T07:11:26.164Z,7.2
2024-03-12T07:12:26.114Z,7.2
2024-03-12T07:13:26.120Z,7.2
2024-03-12T07:14:26.120Z,7.2
2024-03-12T07:15:26.144Z,7.2
2024-03-12T07:16:26.148Z,7.2
2024-03-12T07:17:27.822Z,7.2
2024-03-12T07:18:26.136Z,7.2
2024-03-12T07:19:26.103Z,7.2
2024-03-12T07:20:26.110Z,7.2
2024-03-12T07:21:26.149Z,7.2
2024-03-12T07:22:26.121Z,7.1
2024-03-12T07:23:26.415Z,7.1
2024-03-12T07:24:29.544Z,7.2
2024-03-12T07:25:32.735Z,7.2
2024-03-12T07:26:26.105Z,7.2
2024-03-12T07:27:26.245Z,7.2
2024-03-12T07:28:26.116Z,7.2
2024-03-12T07:29:26.127Z,7.2
2024-03-12T07:30:26.199Z,7.2
2024-03-12T07:31:26.114Z,7.2
2024-03-12T07:32:26.156Z,7.2
2024-03-12T07:33:26.147Z,7.2
2024-03-12T07:34:26.167Z,7.2
2024-03-12T07:35:26.114Z,7.2
2024-03-12T07:36:26.103Z,7.2
2024-03-12T07:37:26.105Z,7.2
2024-03-12T07:38:26.100Z,7.2
2024-03-12T07:39:26.294Z,7.3
2024-03-12T07:40:26.156Z,7.3
2024-03-12T07:41:26.097Z,7.3
2024-03-12T07:42:26.101Z,7.3
2024-03-12T07:43:26.119Z,7.3
2024-03-12T07:44:26.353Z,7.3
2024-03-12T07:45:29.664Z,7.3
2024-03-12T07:46:32.422Z,7.3
2024-03-12T07:47:26.111Z,7.3
2024-03-12T07:48:26.354Z,7.3
2024-03-12T07:49:26.193Z,7.3
2024-03-12T07:50:26.132Z,7.3
2024-03-12T07:51:26.127Z,7.4
2024-03-12T07:52:26.164Z,7.3
2024-03-12T07:53:26.122Z,7.3
2024-03-12T07:55:26.096Z,7.4
2024-03-12T07:56:26.093Z,7.4
2024-03-12T07:57:26.092Z,7.4
2024-03-12T07:58:26.106Z,7.4
2024-03-12T07:59:26.114Z,7.3
2024-03-12T08:00:26.110Z,7.4
2024-03-12T08:01:26.147Z,7.4
2024-03-12T08:02:26.108Z,7.4
2024-03-12T08:03:26.498Z,7.4
2024-03-12T08:05:26.549Z,7.4
2024-03-12T08:06:29.916Z,7.4
2024-03-12T08:07:32.479Z,7.4
2024-03-12T08:08:26.159Z,7.4
2024-03-12T08:09:26.377Z,7.4
2024-03-12T08:10:26.164Z,7.4
2024-03-12T08:11:26.128Z,7.4
2024-03-12T08:12:26.111Z,7.4
2024-03-12T08:13:26.231Z,7.3
2024-03-12T08:14:26.143Z,7.3
2024-03-12T08:15:26.107Z,7.3
2024-03-12T08:16:26.104Z,7.4
2024-03-12T08:17:26.098Z,7.4
2024-03-12T08:18:26.128Z,7.4
2024-03-12T08:19:26.144Z,7.4
2024-03-12T08:20:26.118Z,7.4
2024-03-12T08:21:26.112Z,7.5
2024-03-12T08:22:26.197Z,7.5
2024-03-12T08:23:26.142Z,7.5
2024-03-12T08:24:26.128Z,7.5
2024-03-12T08:25:26.162Z,7.6
2024-03-12T08:26:26.135Z,7.6
2024-03-12T08:27:26.625Z,7.6
2024-03-12T08:28:29.750Z,7.6
2024-03-12T08:29:32.778Z,7.7
2024-03-12T08:30:26.103Z,7.7
2024-03-12T08:31:30.605Z,7.7
2024-03-12T08:32:26.205Z,7.7
2024-03-12T08:33:26.203Z,7.7
2024-03-12T08:34:26.127Z,7.8
2024-03-12T08:35:26.096Z,7.8
2024-03-12T08:36:26.116Z,7.8
2024-03-12T08:37:26.121Z,7.9
2024-03-12T08:38:26.150Z,7.9
2024-03-12T08:39:26.108Z,7.9
2024-03-12T08:40:26.190Z,8
2024-03-12T08:41:26.122Z,8
2024-03-12T08:42:26.137Z,8
2024-03-12T08:43:26.275Z,8.1
2024-03-12T08:44:26.114Z,8.1
2024-03-12T08:45:26.187Z,8.1
2024-03-12T08:46:26.103Z,8.1
2024-03-12T08:47:26.134Z,8.1
2024-03-12T08:48:26.805Z,8.1
2024-03-12T08:49:29.892Z,8.1
2024-03-12T08:50:32.878Z,8.1
2024-03-12T08:51:26.100Z,8.1
2024-03-12T08:52:26.187Z,8.1
2024-03-12T08:53:26.133Z,8.1
2024-03-12T08:54:26.699Z,8.1
2024-03-12T08:55:26.129Z,8.1
2024-03-12T08:56:26.124Z,8.1
2024-03-12T08:57:26.109Z,8.1
2024-03-12T08:58:26.149Z,8.1
2024-03-12T08:59:26.113Z,8.1
2024-03-12T09:00:26.120Z,8.1
2024-03-12T09:01:26.185Z,8.1
2024-03-12T09:02:26.180Z,8.1
2024-03-12T09:03:26.130Z,8.1
2024-03-12T09:04:26.103Z,8
2024-03-12T09:05:26.116Z,8
2024-03-12T09:06:26.102Z,8
2024-03-12T09:07:26.109Z,8
2024-03-12T09:08:26.113Z,8
2024-03-12T09:09:26.856Z,8
2024-03-12T09:10:30.287Z,8
2024-03-12T09:11:33.093Z,8
2024-03-12T09:13:26.226Z,8
2024-03-12T09:14:26.287Z,8
2024-03-12T09:15:26.547Z,8
2024-03-12T09:16:26.396Z,8
2024-03-12T09:17:26.210Z,7.9
2024-03-12T09:18:27.474Z,8
2024-03-12T09:20:26.097Z,8
2024-03-12T09:21:26.111Z,8
2024-03-12T09:22:26.091Z,7.9
2024-03-12T09:23:26.331Z,7.9
2024-03-12T09:24:26.171Z,7.9
2024-03-12T09:25:26.156Z,7.9
2024-03-12T09:26:26.169Z,8
2024-03-12T09:27:26.109Z,8
2024-03-12T09:28:26.131Z,8
2024-03-12T09:29:26.111Z,8
2024-03-12T09:30:27.098Z,8
2024-03-12T09:31:30.068Z,8
2024-03-12T09:32:33.022Z,8
2024-03-12T09:33:26.146Z,8
2024-03-12T09:34:26.126Z,8
2024-03-12T09:35:26.096Z,8
2024-03-12T09:36:26.105Z,8
2024-03-12T09:37:26.134Z,8
2024-03-12T09:38:26.125Z,8
2024-03-12T09:40:26.120Z,8
2024-03-12T09:41:26.105Z,8
2024-03-12T09:42:26.114Z,8
2024-03-12T09:43:26.123Z,8
2024-03-12T09:44:26.380Z,8
2024-03-12T09:45:26.131Z,8
2024-03-12T09:46:26.119Z,8
2024-03-12T09:47:26.160Z,8
2024-03-12T09:48:26.139Z,8
2024-03-12T09:49:26.130Z,8
2024-03-12T09:50:26.138Z,8
2024-03-12T09:51:27.197Z,8
2024-03-12T09:52:30.185Z,8
2024-03-12T09:53:33.077Z,7.9
2024-03-12T09:54:26.104Z,8
2024-03-12T09:55:26.099Z,7.9
2024-03-12T09:56:26.098Z,7.9
2024-03-12T09:57:26.099Z,7.9
2024-03-12T09:58:26.099Z,7.9
2024-03-12T09:59:26.091Z,7.9
2024-03-12T10:00:26.199Z,7.9
2024-03-12T10:01:26.147Z,7.9
2024-03-12T10:03:26.109Z,7.9
2024-03-12T10:04:26.138Z,7.9
2024-03-12T10:05:26.486Z,7.9
2024-03-12T10:06:26.126Z,7.9
2024-03-12T10:07:26.127Z,7.9
2024-03-12T10:09:26.179Z,7.9
2024-03-12T10:10:26.165Z,7.9
2024-03-12T10:11:26.161Z,7.9
2024-03-12T10:12:27.120Z,7.9
2024-03-12T10:13:30.567Z,7.9
2024-03-12T10:14:33.142Z,7.9
2024-03-12T10:15:26.103Z,8
2024-03-12T10:16:26.186Z,8
2024-03-12T10:17:26.123Z,8
2024-03-12T10:18:26.100Z,8
2024-03-12T10:19:26.532Z,8
2024-03-12T10:20:26.106Z,8
2024-03-12T10:21:26.119Z,8.1
2024-03-12T10:22:26.146Z,8.1
2024-03-12T10:23:26.126Z,8.1
2024-03-12T10:24:26.146Z,8.1
2024-03-12T10:25:26.123Z,8.1
2024-03-12T10:26:26.111Z,8.1
2024-03-12T10:27:26.103Z,8.1
2024-03-12T10:28:26.250Z,8.1
2024-03-12T10:29:26.097Z,8.1
2024-03-12T10:30:26.098Z,8.1
2024-03-12T10:31:26.114Z,8.1
2024-03-12T10:32:26.098Z,8.1
2024-03-12T10:33:27.366Z,8.1
2024-03-12T10:34:30.316Z,8.1
2024-03-12T10:35:33.277Z,8.1
2024-03-12T10:37:26.130Z,8.2
2024-03-12T10:38:26.123Z,8.2
2024-03-12T10:39:26.120Z,8.2
2024-03-12T10:40:26.167Z,8.3
2024-03-12T10:41:26.122Z,8.3
2024-03-12T10:42:26.113Z,8.4
2024-03-12T10:43:26.118Z,8.4
2024-03-12T10:44:26.106Z,8.4
2024-03-12T10:45:26.097Z,8.5
2024-03-12T10:46:26.128Z,8.5
2024-03-12T10:47:26.090Z,8.6
2024-03-12T10:48:26.097Z,8.6
2024-03-12T10:49:27.764Z,8.7
2024-03-12T10:50:26.109Z,8.7
2024-03-12T10:51:26.113Z,8.7
2024-03-12T10:52:26.142Z,8.7
2024-03-12T10:53:27.016Z,8.7
2024-03-12T10:54:27.579Z,8.7
2024-03-12T10:55:30.584Z,8.6
2024-03-12T10:56:33.323Z,8.6
2024-03-12T10:58:26.240Z,8.6
2024-03-12T11:00:26.123Z,8.5
2024-03-12T11:01:26.172Z,8.5
2024-03-12T11:02:26.098Z,8.5
2024-03-12T11:03:26.097Z,8.4
2024-03-12T11:04:26.097Z,8.4
2024-03-12T11:05:26.134Z,8.4
2024-03-12T11:06:26.097Z,8.4
2024-03-12T11:07:26.104Z,8.4
2024-03-12T11:08:26.136Z,8.4
2024-03-12T11:09:26.110Z,8.4
2024-03-12T11:10:26.129Z,8.3
2024-03-12T11:11:26.159Z,8.3
2024-03-12T11:12:26.113Z,8.3
2024-03-12T11:13:26.126Z,8.3
2024-03-12T11:14:26.122Z,8.3
2024-03-12T11:15:26.122Z,8.2
2024-03-12T11:16:26.149Z,8.2
2024-03-12T11:17:27.956Z,8.2
2024-03-12T11:18:30.910Z,8.2
2024-03-12T11:19:26.288Z,8.2
2024-03-12T11:20:27.884Z,8.2
2024-03-12T11:21:26.112Z,8.1
2024-03-12T11:22:26.097Z,8.1
2024-03-12T11:23:26.114Z,8.1
2024-03-12T11:24:26.102Z,8
2024-03-12T11:25:26.096Z,8.1
2024-03-12T11:26:35.786Z,8
2024-03-12T11:27:26.107Z,8
2024-03-12T11:28:26.154Z,8
2024-03-12T11:30:26.123Z,8
2024-03-12T11:31:26.117Z,8
2024-03-12T11:32:26.141Z,8
2024-03-12T11:33:26.146Z,7.9
2024-03-12T11:34:26.106Z,7.9
2024-03-12T11:35:26.101Z,7.9
2024-03-12T11:36:26.097Z,7.9
2024-03-12T11:37:26.101Z,7.9
2024-03-12T11:38:27.824Z,7.9
2024-03-12T11:39:31.052Z,7.9
2024-03-12T11:41:26.106Z,7.9
2024-03-12T11:42:26.096Z,7.8
2024-03-12T11:43:26.098Z,7.8
2024-03-12T11:44:26.105Z,7.8
2024-03-12T11:45:26.255Z,7.8
2024-03-12T11:46:26.128Z,7.8
2024-03-12T11:47:26.146Z,7.8
2024-03-12T11:48:26.124Z,7.8
2024-03-12T11:49:26.115Z,7.8
2024-03-12T11:50:26.121Z,7.8
2024-03-12T11:51:26.114Z,7.9
2024-03-12T11:52:26.112Z,7.9
2024-03-12T11:54:26.098Z,7.9
2024-03-12T11:55:26.090Z,7.9
2024-03-12T11:56:26.092Z,7.9
2024-03-12T11:57:26.119Z,7.9
2024-03-12T11:58:26.098Z,7.9
2024-03-12T11:59:27.912Z,7.9
2024-03-12T12:00:30.709Z,7.9
2024-03-12T12:02:26.118Z,8
2024-03-12T12:03:26.120Z,8
2024-03-12T12:04:26.138Z,8
2024-03-12T12:05:26.128Z,8
2024-03-12T12:06:26.476Z,8.1
2024-03-12T12:07:26.137Z,8.1
2024-03-12T12:08:26.107Z,8.1
2024-03-12T12:09:26.124Z,8.1
2024-03-12T12:10:26.209Z,8.1
2024-03-12T12:11:26.114Z,8.1
2024-03-12T12:12:26.100Z,8.1
2024-03-12T12:13:26.097Z,8.1
2024-03-12T12:14:26.097Z,8.1
2024-03-12T12:15:26.110Z,8.1
2024-03-12T12:16:26.142Z,8.1
2024-03-12T12:17:26.106Z,8.1
2024-03-12T12:18:26.102Z,8.1
2024-03-12T12:19:31.814Z,8.1
2024-03-12T12:20:27.980Z,8.1
2024-03-12T12:21:31.110Z,8.1
2024-03-12T12:22:26.296Z,8.1
2024-03-12T12:23:26.118Z,8.1
2024-03-12T12:24:26.246Z,8
2024-03-12T12:25:26.117Z,8
2024-03-12T12:26:26.099Z,8
2024-03-12T12:27:26.109Z,8
2024-03-12T12:28:26.101Z,8
2024-03-12T12:29:26.098Z,8
2024-03-12T12:30:26.096Z,8
2024-03-12T12:31:26.097Z,8
2024-03-12T12:32:26.123Z,7.9
2024-03-12T12:33:26.108Z,7.9
2024-03-12T12:34:26.146Z,7.9
2024-03-12T12:35:26.117Z,7.9
2024-03-12T12:36:26.102Z,7.9
2024-03-12T12:37:26.199Z,7.9
2024-03-12T12:38:26.117Z,7.9
2024-03-12T12:39:32.725Z,7.9
2024-03-12T12:40:26.133Z,7.9
2024-03-12T12:41:28.070Z,7.9
2024-03-12T12:42:31.226Z,7.9
2024-03-12T12:43:26.110Z,7.9
2024-03-12T12:44:26.123Z,7.9
2024-03-12T12:45:26.118Z,7.9
2024-03-12T12:46:26.124Z,7.9
2024-03-12T12:47:26.094Z,8
2024-03-12T12:48:26.101Z,8
2024-03-12T12:49:26.244Z,8
2024-03-12T12:50:26.100Z,8
2024-03-12T12:51:26.124Z,8.1
2024-03-12T12:52:26.152Z,8.1
2024-03-12T12:53:26.152Z,8.1
2024-03-12T12:54:26.153Z,8.1
2024-03-12T12:55:26.215Z,8.2
2024-03-12T12:57:26.215Z,8.2
2024-03-12T12:58:26.516Z,8.2
2024-03-12T12:59:26.259Z,8.3
2024-03-12T13:00:26.234Z,8.3
2024-03-12T13:01:26.351Z,8.3
2024-03-12T13:02:28.230Z,8.3
2024-03-12T13:03:31.258Z,8.3
2024-03-12T13:04:26.349Z,8.3
2024-03-12T13:05:26.433Z,8.3
2024-03-12T13:06:26.529Z,8.3
2024-03-12T13:07:26.585Z,8.3
2024-03-12T13:08:26.467Z,8.3
2024-03-12T13:09:26.434Z,8.3
2024-03-12T13:10:26.136Z,8.3
2024-03-12T13:11:26.138Z,8.3
2024-03-12T13:12:26.121Z,8.3
2024-03-12T13:13:26.145Z,8.3
2024-03-12T13:14:26.120Z,8.3
2024-03-12T13:15:26.120Z,8.3
2024-03-12T13:16:26.129Z,8.3
2024-03-12T13:17:26.232Z,8.3
2024-03-12T13:18:26.130Z,8.3
2024-03-12T13:19:26.340Z,8.3
2024-03-12T13:20:26.104Z,8.3
2024-03-12T13:21:26.128Z,8.3
2024-03-12T13:22:30.657Z,8.3
2024-03-12T13:23:28.405Z,8.3
2024-03-12T13:24:31.350Z,8.2
2024-03-12T13:25:26.227Z,8.2
2024-03-12T13:26:26.128Z,8.2
2024-03-12T13:27:26.119Z,8.2
2024-03-12T13:28:26.121Z,8.1
2024-03-12T13:29:26.117Z,8.1
2024-03-12T13:30:26.121Z,8.1
2024-03-12T13:31:26.170Z,8
2024-03-12T13:32:26.125Z,8
2024-03-12T13:33:26.134Z,8
2024-03-12T13:34:26.142Z,8
2024-03-12T13:35:26.102Z,8
2024-03-12T13:36:26.119Z,8
2024-03-12T13:37:26.129Z,8
2024-03-12T13:38:26.100Z,8
2024-03-12T13:39:26.193Z,8
2024-03-12T13:40:26.430Z,8.1
2024-03-12T13:41:26.364Z,8.1
2024-03-12T13:42:26.277Z,8.1
2024-03-12T13:43:26.127Z,8.1
2024-03-12T13:44:28.458Z,8.1
2024-03-12T13:45:31.697Z,8.2
2024-03-12T13:46:26.189Z,8.2
2024-03-12T13:47:26.176Z,8.2
2024-03-12T13:48:26.159Z,8.3
2024-03-12T13:49:26.225Z,8.3
2024-03-12T13:50:26.151Z,8.3
2024-03-12T13:51:26.127Z,8.3
2024-03-12T13:52:26.174Z,8.4
2024-03-12T13:53:26.097Z,8.4
2024-03-12T13:54:26.118Z,8.4
2024-03-12T13:55:26.106Z,8.5
2024-03-12T13:56:26.092Z,8.5
2024-03-12T13:57:26.098Z,8.5
2024-03-12T13:58:26.107Z,8.6
2024-03-12T13:59:26.125Z,8.6
2024-03-12T14:00:26.113Z,8.6
2024-03-12T14:01:26.517Z,8.7
2024-03-12T14:02:26.133Z,8.7
2024-03-12T14:03:26.125Z,8.7
2024-03-12T14:04:27.497Z,8.8
2024-03-12T14:05:28.529Z,8.8
2024-03-12T14:06:31.628Z,8.8
2024-03-12T14:08:26.122Z,8.9
2024-03-12T14:09:26.105Z,8.9
2024-03-12T14:10:26.117Z,8.9
2024-03-12T14:11:26.136Z,9
2024-03-12T14:12:26.110Z,9
2024-03-12T14:13:26.173Z,9
2024-03-12T14:14:26.134Z,9.1
2024-03-12T14:15:26.101Z,9.1
2024-03-12T14:16:26.146Z,9.1
2024-03-12T14:17:26.126Z,9.2
2024-03-12T14:18:26.121Z,9.2
2024-03-12T14:19:26.144Z,9.2
2024-03-12T14:21:26.116Z,9.2
2024-03-12T14:22:26.128Z,9.2
2024-03-12T14:23:26.129Z,9.3
2024-03-12T14:24:26.116Z,9.3
2024-03-12T14:25:26.129Z,9.3
2024-03-12T14:26:28.610Z,9.3
2024-03-12T14:27:31.546Z,9.3
2024-03-12T14:28:26.129Z,9.3
2024-03-12T14:29:26.114Z,9.3
2024-03-12T14:30:26.117Z,9.3
2024-03-12T14:31:26.156Z,9.2
2024-03-12T14:32:26.118Z,9.2
2024-03-12T14:33:29.475Z,9.2
2024-03-12T14:34:26.163Z,9.1
2024-03-12T14:35:26.116Z,9.1
2024-03-12T14:36:26.136Z,9.1